createdAt,value
2019-04-25T00:02:36.753Z,82.30
2019-04-25T00:05:10.951Z,82.50
2019-04-25T00:07:42.466Z,82.60
2019-04-25T00:10:13.794Z,83.20
2019-04-25T00:12:44.478Z,83.10
2019-04-25T00:15:14.086Z,82.80
2019-04-25T00:17:44.540Z,83.40
2019-04-25T00:20:14.623Z,83.50
2019-04-25T00:23:05.227Z,83.70
2019-04-25T00:25:52.791Z,84.30
2019-04-25T00:28:22.305Z,83.30
2019-04-25T00:30:52.276Z,83.40
2019-04-25T00:33:22.363Z,83.50
2019-04-25T00:35:52.709Z,83.50
2019-04-25T00:38:22.248Z,83.50
2019-04-25T00:40:53.525Z,83.60
2019-04-25T00:43:22.916Z,84.00
2019-04-25T00:45:52.710Z,83.90
2019-04-25T00:48:22.372Z,84.10
2019-04-25T00:50:54.477Z,84.10
2019-04-25T00:53:22.797Z,84.10
2019-04-25T00:55:52.866Z,84.20
2019-04-25T00:58:35.296Z,84.30
2019-04-25T01:01:38.819Z,84.30
2019-04-25T01:04:08.172Z,84.40
2019-04-25T01:06:37.534Z,84.50
2019-04-25T01:09:12.471Z,84.80
2019-04-25T01:11:42.399Z,85.10
2019-04-25T01:14:11.980Z,85.20
2019-04-25T01:16:41.758Z,85.70
2019-04-25T01:19:11.121Z,86.10
2019-04-25T01:21:40.436Z,86.10
2019-04-25T01:24:10.169Z,86.20
2019-04-25T01:26:39.449Z,86.10
2019-04-25T01:29:09.119Z,86.20
2019-04-25T01:31:38.604Z,86.80
2019-04-25T01:34:10.736Z,86.40
2019-04-25T01:37:19.015Z,85.60
2019-04-25T01:39:59.304Z,85.10
2019-04-25T01:43:03.742Z,84.80
2019-04-25T01:45:34.394Z,86.00
2019-04-25T01:48:04.044Z,86.20
2019-04-25T01:50:35.230Z,86.10
2019-04-25T01:53:04.411Z,86.50
2019-04-25T01:55:33.778Z,86.40
2019-04-25T01:58:03.885Z,86.50
2019-04-25T02:00:39.283Z,86.80
2019-04-25T02:03:08.706Z,86.90
2019-04-25T02:05:38.054Z,86.70
2019-04-25T02:08:07.486Z,87.30
2019-04-25T02:10:36.841Z,88.20
2019-04-25T02:13:08.420Z,88.80
2019-04-25T02:15:37.694Z,89.30
2019-04-25T02:18:07.020Z,89.70
2019-04-25T02:20:36.345Z,90.20
2019-04-25T02:23:05.695Z,90.50
2019-04-25T02:25:34.980Z,90.50
2019-04-25T02:28:05.668Z,91.10
2019-04-25T02:30:35.767Z,91.00
2019-04-25T02:33:09.006Z,91.20
2019-04-25T02:35:36.163Z,91.40
2019-04-25T02:38:08.821Z,91.60
2019-04-25T02:40:36.662Z,91.80
2019-04-25T02:43:07.905Z,92.00
2019-04-25T02:46:08.632Z,92.00
2019-04-25T02:49:29.947Z,92.00
2019-04-25T02:52:12.808Z,92.10
2019-04-25T02:54:39.217Z,92.20
2019-04-25T02:57:08.445Z,92.20
2019-04-25T02:59:38.007Z,92.50
2019-04-25T03:02:09.201Z,92.40
2019-04-25T03:04:38.818Z,92.40
2019-04-25T03:07:11.073Z,92.80
2019-04-25T03:09:40.250Z,92.70
2019-04-25T03:12:09.611Z,93.00
2019-04-25T03:14:39.039Z,93.20
2019-04-25T03:17:09.922Z,93.70
2019-04-25T03:19:59.886Z,93.90
2019-04-25T03:22:30.405Z,93.80
2019-04-25T03:25:00.269Z,94.00
2019-04-25T03:27:30.718Z,93.90
2019-04-25T03:29:59.990Z,93.90
2019-04-25T03:32:29.522Z,93.90
2019-04-25T03:34:58.839Z,93.70
2019-04-25T03:37:28.139Z,93.80
2019-04-25T03:39:57.416Z,93.90
2019-04-25T03:42:26.661Z,94.10
2019-04-25T03:44:55.924Z,94.30
2019-04-25T03:47:25.177Z,94.40
2019-04-25T03:49:55.436Z,94.50
2019-04-25T03:52:24.860Z,94.40
2019-04-25T03:54:56.729Z,94.50
2019-04-25T03:57:25.468Z,94.40
2019-04-25T03:59:54.720Z,94.30
2019-04-25T04:02:25.122Z,94.20
2019-04-25T04:04:54.463Z,94.20
2019-04-25T04:07:23.951Z,94.50
2019-04-25T04:09:54.964Z,94.30
2019-04-25T04:12:24.529Z,94.30
2019-04-25T04:14:53.901Z,94.30
2019-04-25T04:17:35.981Z,94.10
2019-04-25T04:20:37.130Z,94.00
2019-04-25T04:23:14.377Z,94.10
2019-04-25T04:25:43.825Z,94.00
2019-04-25T04:28:14.086Z,93.80
2019-04-25T04:30:45.425Z,93.90
2019-04-25T04:33:26.675Z,94.20
2019-04-25T04:35:47.639Z,94.20
2019-04-25T04:38:16.858Z,94.20
2019-04-25T04:40:46.149Z,94.00
2019-04-25T04:43:16.505Z,94.20
2019-04-25T04:45:45.869Z,94.10
2019-04-25T04:48:16.652Z,94.10
2019-04-25T04:50:46.045Z,94.00
2019-04-25T04:53:16.039Z,93.50
2019-04-25T04:55:45.615Z,93.40
2019-04-25T04:58:16.110Z,93.30
2019-04-25T05:00:46.326Z,93.30
2019-04-25T05:03:26.684Z,93.50
2019-04-25T05:06:17.761Z,93.50
2019-04-25T05:08:50.186Z,93.30
2019-04-25T05:11:19.929Z,93.20
2019-04-25T05:13:49.456Z,93.20
2019-04-25T05:16:19.759Z,93.10
2019-04-25T05:18:49.130Z,92.90
2019-04-25T05:21:18.459Z,92.60
2019-04-25T05:23:47.763Z,92.20
2019-04-25T05:26:17.232Z,91.70
2019-04-25T05:28:46.545Z,91.30
2019-04-25T05:31:37.885Z,91.00
2019-04-25T05:34:07.126Z,90.50
2019-04-25T05:36:39.447Z,90.30
2019-04-25T05:39:10.597Z,90.00
2019-04-25T05:41:59.663Z,89.30
2019-04-25T05:44:30.219Z,88.40
2019-04-25T05:46:59.502Z,87.70
2019-04-25T05:49:28.840Z,87.40
2019-04-25T05:51:58.094Z,87.30
2019-04-25T05:54:27.481Z,86.80
2019-04-25T05:56:56.831Z,86.40
2019-04-25T05:59:26.921Z,86.40
2019-04-25T06:01:56.306Z,85.70
2019-04-25T06:04:25.903Z,85.60
2019-04-25T06:06:55.335Z,85.10
2019-04-25T06:09:54.404Z,84.90
2019-04-25T06:12:34.094Z,84.30
2019-04-25T06:15:03.514Z,78.70
2019-04-25T06:17:53.370Z,66.10
2019-04-25T06:20:24.909Z,55.60
2019-04-25T06:23:11.004Z,44.70
2019-04-25T06:25:40.342Z,39.10
2019-04-25T06:28:13.636Z,36.40
2019-04-25T06:30:44.310Z,34.60
2019-04-25T06:33:15.026Z,33.40
2019-04-25T06:35:44.411Z,33.90
2019-04-25T06:38:13.693Z,33.40
2019-04-25T06:40:43.714Z,32.80
2019-04-25T06:43:13.634Z,32.90
2019-04-25T06:45:51.536Z,32.60
2019-04-25T06:48:27.104Z,31.50
2019-04-25T06:50:57.232Z,31.00
2019-04-25T06:53:26.954Z,30.30
2019-04-25T06:55:56.323Z,30.40
2019-04-25T06:58:27.178Z,29.80
2019-04-25T07:01:00.644Z,30.50
2019-04-25T07:03:27.634Z,29.90
2019-04-25T07:05:57.011Z,30.30
2019-04-25T07:08:26.915Z,30.50
2019-04-25T07:10:57.083Z,30.70
2019-04-25T07:13:27.045Z,30.00
2019-04-25T07:15:56.475Z,29.70
2019-04-25T07:18:30.529Z,29.40
2019-04-25T07:20:56.804Z,30.10
2019-04-25T07:23:26.615Z,29.40
2019-04-25T07:26:07.066Z,28.60
2019-04-25T07:28:58.201Z,28.60
2019-04-25T07:31:50.831Z,29.20
2019-04-25T07:34:22.115Z,29.10
2019-04-25T07:36:51.550Z,29.60
2019-04-25T07:39:20.863Z,29.80
2019-04-25T07:41:50.326Z,30.00
2019-04-25T07:44:22.008Z,30.10
2019-04-25T07:46:50.708Z,29.60
2019-04-25T07:49:20.600Z,29.70
2019-04-25T07:51:53.656Z,29.20
2019-04-25T07:54:23.970Z,29.40
2019-04-25T07:56:55.066Z,29.90
2019-04-25T07:59:25.297Z,30.00
2019-04-25T08:01:54.715Z,29.80
2019-04-25T08:04:24.030Z,29.70
2019-04-25T08:06:54.270Z,29.30
2019-04-25T08:09:24.768Z,29.10
2019-04-25T08:11:54.941Z,29.70
2019-04-25T08:14:34.194Z,29.60
2019-04-25T08:17:04.150Z,29.90
2019-04-25T08:19:34.392Z,30.20
2019-04-25T08:22:04.992Z,30.10
2019-04-25T08:24:37.117Z,30.00
2019-04-25T08:27:09.326Z,31.30
2019-04-25T08:29:39.732Z,32.70
2019-04-25T08:32:09.212Z,33.10
2019-04-25T08:34:38.660Z,32.20
2019-04-25T08:37:18.064Z,30.90
2019-04-25T08:39:39.805Z,30.00
2019-04-25T08:42:10.319Z,29.80
2019-04-25T08:44:39.587Z,29.50
2019-04-25T08:47:08.982Z,30.70
2019-04-25T08:49:45.998Z,30.60
2019-04-25T08:52:15.541Z,30.60
2019-04-25T08:54:58.977Z,30.00
2019-04-25T08:57:46.426Z,30.40
2019-04-25T09:00:25.259Z,30.30
2019-04-25T09:02:58.674Z,30.10
2019-04-25T09:05:40.382Z,29.30
2019-04-25T09:08:10.216Z,29.00
2019-04-25T09:10:40.212Z,28.90
2019-04-25T09:13:13.508Z,29.60
2019-04-25T09:15:46.454Z,28.70
2019-04-25T09:18:15.728Z,29.30
2019-04-25T09:20:48.145Z,29.30
2019-04-25T09:23:20.638Z,29.30
2019-04-25T09:25:49.994Z,29.20
2019-04-25T09:28:19.494Z,29.20
2019-04-25T09:30:51.878Z,28.60
2019-04-25T09:33:39.163Z,28.50
2019-04-25T09:36:10.575Z,28.00
2019-04-25T09:38:40.938Z,28.70
2019-04-25T09:41:10.463Z,28.70
2019-04-25T09:43:40.335Z,28.60
2019-04-25T09:46:21.261Z,29.00
2019-04-25T09:49:10.612Z,28.90
2019-04-25T09:51:45.784Z,28.80
2019-04-25T09:54:48.127Z,29.20
2019-04-25T09:57:38.948Z,28.80
2019-04-25T10:00:18.928Z,28.90
2019-04-25T10:02:50.412Z,29.20
2019-04-25T10:05:20.957Z,29.10
2019-04-25T10:07:50.751Z,28.50
2019-04-25T10:10:20.010Z,28.90
2019-04-25T10:12:49.985Z,28.10
2019-04-25T10:15:44.712Z,27.60
2019-04-25T10:18:15.874Z,28.10
2019-04-25T10:20:46.308Z,28.20
2019-04-25T10:23:15.855Z,29.20
2019-04-25T10:25:48.580Z,28.90
2019-04-25T10:28:18.052Z,29.40
2019-04-25T10:30:49.164Z,29.90
2019-04-25T10:33:20.182Z,28.60
2019-04-25T10:35:55.900Z,29.30
2019-04-25T10:38:20.477Z,30.00
2019-04-25T10:40:50.794Z,29.70
2019-04-25T10:43:21.692Z,29.50
2019-04-25T10:45:51.235Z,29.90
2019-04-25T10:48:24.137Z,31.10
2019-04-25T10:50:55.622Z,32.10
2019-04-25T10:53:25.166Z,32.10
2019-04-25T10:55:58.292Z,32.10
2019-04-25T10:58:27.655Z,31.00
2019-04-25T11:00:57.272Z,30.90
2019-04-25T11:03:49.916Z,31.60
2019-04-25T11:06:24.444Z,31.50
2019-04-25T11:08:56.299Z,31.20
2019-04-25T11:11:24.908Z,31.10
2019-04-25T11:13:57.399Z,31.50
2019-04-25T11:16:26.933Z,31.60
2019-04-25T11:18:56.721Z,31.70
2019-04-25T11:21:25.984Z,31.70
2019-04-25T11:23:55.576Z,31.00
2019-04-25T11:26:25.729Z,31.00
2019-04-25T11:28:54.998Z,30.70
2019-04-25T11:31:28.986Z,30.20
2019-04-25T11:33:58.358Z,31.30
2019-04-25T11:36:27.607Z,30.90
2019-04-25T11:39:34.200Z,30.30
2019-04-25T11:42:06.363Z,29.00
2019-04-25T11:44:35.998Z,30.00
2019-04-25T11:47:06.919Z,29.90
2019-04-25T11:49:36.865Z,30.10
2019-04-25T11:52:06.921Z,30.40
2019-04-25T11:54:36.364Z,26.90
2019-04-25T11:57:07.326Z,26.90
2019-04-25T11:59:37.940Z,28.00
2019-04-25T12:02:09.841Z,28.70
2019-04-25T12:04:39.278Z,28.90
2019-04-25T12:07:09.534Z,29.80
2019-04-25T12:09:39.181Z,30.70
2019-04-25T12:12:09.797Z,30.70
2019-04-25T12:14:39.053Z,31.00
2019-04-25T12:17:08.382Z,31.60
2019-04-25T12:19:38.171Z,31.60
2019-04-25T12:22:07.955Z,31.70
2019-04-25T12:24:40.060Z,31.80
2019-04-25T12:27:09.502Z,32.30
2019-04-25T12:29:39.340Z,32.40
2019-04-25T12:32:10.401Z,32.50
2019-04-25T12:34:40.118Z,32.80
2019-04-25T12:37:09.495Z,33.00
2019-04-25T12:39:38.962Z,33.20
2019-04-25T12:42:08.733Z,33.20
2019-04-25T12:45:06.103Z,33.50
2019-04-25T12:47:38.999Z,33.60
2019-04-25T12:50:08.961Z,33.20
2019-04-25T12:52:39.246Z,32.80
2019-04-25T12:55:09.574Z,32.90
2019-04-25T12:57:40.038Z,33.10
2019-04-25T13:00:10.713Z,32.80
2019-04-25T13:02:40.056Z,32.70
2019-04-25T13:05:10.698Z,32.50
2019-04-25T13:07:43.006Z,33.10
2019-04-25T13:10:15.378Z,33.30
2019-04-25T13:12:44.882Z,33.50
2019-04-25T13:15:14.592Z,33.30
2019-04-25T13:17:43.918Z,33.40
2019-04-25T13:20:13.608Z,33.20
2019-04-25T13:22:43.334Z,34.10
2019-04-25T13:25:14.958Z,34.60
2019-04-25T13:28:05.568Z,34.50
2019-04-25T13:31:03.987Z,34.70
2019-04-25T13:33:57.205Z,34.60
2019-04-25T13:36:27.328Z,34.80
2019-04-25T13:38:57.174Z,35.10
2019-04-25T13:41:27.175Z,35.20
2019-04-25T13:43:56.632Z,35.10
2019-04-25T13:46:27.689Z,35.10
2019-04-25T13:48:57.166Z,35.00
2019-04-25T13:51:26.743Z,34.90
2019-04-25T13:53:56.460Z,34.60
2019-04-25T13:56:27.445Z,34.30
2019-04-25T13:58:56.943Z,34.80
2019-04-25T14:01:27.643Z,34.50
2019-04-25T14:04:00.806Z,34.50
2019-04-25T14:06:32.429Z,34.50
2019-04-25T14:09:07.736Z,34.30
2019-04-25T14:11:37.043Z,34.70
2019-04-25T14:14:06.574Z,34.80
2019-04-25T14:17:07.358Z,34.70
2019-04-25T14:20:05.293Z,34.70
2019-04-25T14:22:34.702Z,35.10
2019-04-25T14:25:05.324Z,34.70
2019-04-25T14:27:34.582Z,34.50
2019-04-25T14:30:04.535Z,34.00
2019-04-25T14:32:35.101Z,33.90
2019-04-25T14:35:04.569Z,34.10
2019-04-25T14:37:39.466Z,34.00
2019-04-25T14:40:06.961Z,33.30
2019-04-25T14:42:38.277Z,33.00
2019-04-25T14:45:08.179Z,32.20
2019-04-25T14:47:37.815Z,31.80
2019-04-25T14:50:07.098Z,31.40
2019-04-25T14:52:38.712Z,31.40
2019-04-25T14:55:27.988Z,31.60
2019-04-25T14:57:58.714Z,31.50
2019-04-25T15:00:34.903Z,31.30
2019-04-25T15:03:04.659Z,31.60
2019-04-25T15:05:34.822Z,31.80
2019-04-25T15:08:04.394Z,31.90
2019-04-25T15:10:34.092Z,31.80
2019-04-25T15:13:04.515Z,32.30
2019-04-25T15:15:33.868Z,31.50
2019-04-25T15:18:04.191Z,31.30
2019-04-25T15:20:34.361Z,31.30
2019-04-25T15:23:03.821Z,31.10
2019-04-25T15:25:33.579Z,31.20
2019-04-25T15:28:03.027Z,31.30
2019-04-25T15:30:36.973Z,31.60
2019-04-25T15:33:07.466Z,31.30
2019-04-25T15:35:47.223Z,31.30
2019-04-25T15:38:25.421Z,31.40
2019-04-25T15:41:04.586Z,30.80
2019-04-25T15:43:49.098Z,30.60
2019-04-25T15:46:22.243Z,30.70
2019-04-25T15:48:52.464Z,30.80
2019-04-25T15:51:22.051Z,30.70
2019-04-25T15:53:51.439Z,30.70
2019-04-25T15:56:20.725Z,31.00
2019-04-25T15:58:50.033Z,31.00
2019-04-25T16:01:20.357Z,30.80
2019-04-25T16:03:52.369Z,31.00
2019-04-25T16:06:20.673Z,31.00
2019-04-25T16:08:49.939Z,31.10
2019-04-25T16:11:19.316Z,31.10
2019-04-25T16:13:48.638Z,31.00
2019-04-25T16:16:17.954Z,30.80
2019-04-25T16:18:47.208Z,31.10
2019-04-25T16:21:16.580Z,31.30
2019-04-25T16:23:46.204Z,31.50
2019-04-25T16:26:15.519Z,31.70
2019-04-25T16:28:45.901Z,32.10
2019-04-25T16:31:18.340Z,32.10
2019-04-25T16:33:47.641Z,32.30
2019-04-25T16:36:17.359Z,32.40
2019-04-25T16:38:46.633Z,32.40
2019-04-25T16:41:16.325Z,32.50
2019-04-25T16:43:49.010Z,32.70
2019-04-25T16:46:19.083Z,32.80
2019-04-25T16:48:48.387Z,32.70
2019-04-25T16:51:18.066Z,32.70
2019-04-25T16:53:47.431Z,33.00
2019-04-25T16:56:16.682Z,33.30
2019-04-25T16:58:46.005Z,33.40
2019-04-25T17:01:15.806Z,33.80
2019-04-25T17:03:45.179Z,34.20
2019-04-25T17:06:14.786Z,34.60
2019-04-25T17:08:44.045Z,34.90
2019-04-25T17:11:13.576Z,35.10
2019-04-25T17:13:52.476Z,35.40
2019-04-25T17:16:34.697Z,36.10
2019-04-25T17:19:09.987Z,35.90
2019-04-25T17:21:39.484Z,36.10
2019-04-25T17:24:10.993Z,36.20
2019-04-25T17:26:40.619Z,36.30
2019-04-25T17:29:15.103Z,36.40
2019-04-25T17:32:07.335Z,37.20
2019-04-25T17:34:51.492Z,37.50
2019-04-25T17:37:51.960Z,38.20
2019-04-25T17:40:25.217Z,38.70
2019-04-25T17:42:56.059Z,39.90
2019-04-25T17:45:29.692Z,40.60
2019-04-25T17:47:59.908Z,41.40
2019-04-25T17:50:29.205Z,42.00
2019-04-25T17:52:58.571Z,43.00
2019-04-25T17:55:27.922Z,43.20
2019-04-25T17:57:57.242Z,43.70
2019-04-25T18:00:33.774Z,44.00
2019-04-25T18:03:03.427Z,44.20
2019-04-25T18:05:32.845Z,44.60
2019-04-25T18:08:02.781Z,44.80
2019-04-25T18:10:34.191Z,45.00
2019-04-25T18:13:04.375Z,45.00
2019-04-25T18:15:50.548Z,45.20
2019-04-25T18:18:37.085Z,45.50
2019-04-25T18:21:06.591Z,45.50
2019-04-25T18:24:10.187Z,45.60
2019-04-25T18:27:02.722Z,45.60
2019-04-25T18:29:32.631Z,45.90
2019-04-25T18:32:02.541Z,45.70
2019-04-25T18:34:48.122Z,45.80
2019-04-25T18:37:37.283Z,45.90
2019-04-25T18:40:27.553Z,46.20
2019-04-25T18:43:14.083Z,46.50
2019-04-25T18:45:46.524Z,46.80
2019-04-25T18:48:15.852Z,47.00
2019-04-25T18:50:45.367Z,47.20
2019-04-25T18:53:33.642Z,47.60
2019-04-25T18:56:11.950Z,47.90
2019-04-25T18:59:02.042Z,48.30
2019-04-25T19:01:53.956Z,48.50
2019-04-25T19:04:36.258Z,48.90
2019-04-25T19:07:05.576Z,49.20
2019-04-25T19:09:34.902Z,49.60
2019-04-25T19:12:04.250Z,50.00
2019-04-25T19:14:33.583Z,50.30
2019-04-25T19:17:02.915Z,50.60
2019-04-25T19:19:32.178Z,50.90
2019-04-25T19:22:01.580Z,51.40
2019-04-25T19:24:32.907Z,51.70
2019-04-25T19:27:02.331Z,52.10
2019-04-25T19:29:31.789Z,52.30
2019-04-25T19:32:01.113Z,52.60
2019-04-25T19:34:30.420Z,52.80
2019-04-25T19:36:59.780Z,53.00
2019-04-25T19:39:31.045Z,53.30
2019-04-25T19:42:17.926Z,53.70
2019-04-25T19:44:47.353Z,54.10
2019-04-25T19:47:16.642Z,54.50
2019-04-25T19:49:45.924Z,55.00
2019-04-25T19:52:15.167Z,55.10
2019-04-25T19:54:45.189Z,54.90
2019-04-25T19:57:14.723Z,55.90
2019-04-25T19:59:44.671Z,56.80
2019-04-25T20:02:25.940Z,56.20
2019-04-25T20:05:05.872Z,56.40
2019-04-25T20:07:46.552Z,56.60
2019-04-25T20:10:30.992Z,56.80
2019-04-25T20:13:00.285Z,57.10
2019-04-25T20:15:29.630Z,57.30
2019-04-25T20:17:58.895Z,57.60
2019-04-25T20:20:29.443Z,57.80
2019-04-25T20:22:59.144Z,58.10
2019-04-25T20:25:28.531Z,58.30
2019-04-25T20:27:57.856Z,58.60
2019-04-25T20:30:27.189Z,58.80
2019-04-25T20:32:56.558Z,59.10
2019-04-25T20:35:25.920Z,59.20
2019-04-25T20:37:55.638Z,59.60
2019-04-25T20:40:25.029Z,60.00
2019-04-25T20:42:54.397Z,60.40
2019-04-25T20:45:24.043Z,61.00
2019-04-25T20:47:54.802Z,61.30
2019-04-25T20:50:24.196Z,61.40
2019-04-25T20:52:54.757Z,61.50
2019-04-25T20:55:24.566Z,62.50
2019-04-25T20:57:53.925Z,62.20
2019-04-25T21:00:44.624Z,62.30
2019-04-25T21:03:14.628Z,62.20
2019-04-25T21:05:45.873Z,62.60
2019-04-25T21:08:15.147Z,62.80
2019-04-25T21:10:44.493Z,63.20
2019-04-25T21:13:18.258Z,63.20
2019-04-25T21:15:56.176Z,63.50
2019-04-25T21:18:47.211Z,63.90
2019-04-25T21:21:17.372Z,64.30
2019-04-25T21:23:46.789Z,64.60
2019-04-25T21:26:16.118Z,64.60
2019-04-25T21:28:45.408Z,64.50
2019-04-25T21:31:14.895Z,64.80
2019-04-25T21:33:44.254Z,65.50
2019-04-25T21:36:13.832Z,65.80
2019-04-25T21:38:44.658Z,66.40
2019-04-25T21:41:41.513Z,67.10
2019-04-25T21:44:11.354Z,67.30
2019-04-25T21:46:41.370Z,68.20
2019-04-25T21:49:11.098Z,68.80
2019-04-25T21:51:40.404Z,70.20
2019-04-25T21:54:09.782Z,70.40
2019-04-25T21:56:40.216Z,71.10
2019-04-25T21:59:09.849Z,71.70
2019-04-25T22:01:41.314Z,72.10
2019-04-25T22:04:13.206Z,72.70
2019-04-25T22:06:45.331Z,73.20
2019-04-25T22:09:17.423Z,73.40
2019-04-25T22:11:46.973Z,73.90
2019-04-25T22:14:17.206Z,73.90
2019-04-25T22:16:46.986Z,74.20
2019-04-25T22:19:17.067Z,74.60
2019-04-25T22:21:46.854Z,74.50
2019-04-25T22:24:17.228Z,75.00
2019-04-25T22:26:48.181Z,75.20
2019-04-25T22:29:17.590Z,75.40
2019-04-25T22:31:54.578Z,75.40
2019-04-25T22:34:33.055Z,76.40
2019-04-25T22:37:02.386Z,77.00
2019-04-25T22:39:31.759Z,76.20
2019-04-25T22:42:01.987Z,76.40
2019-04-25T22:44:31.738Z,76.30
2019-04-25T22:47:02.314Z,76.70
2019-04-25T22:49:31.741Z,76.60
2019-04-25T22:52:01.764Z,76.90
2019-04-25T22:54:32.359Z,77.10
2019-04-25T22:57:02.965Z,77.30
2019-04-25T22:59:34.520Z,77.60
2019-04-25T23:02:21.591Z,78.00
2019-04-25T23:05:09.047Z,78.40
2019-04-25T23:07:30.798Z,79.00
2019-04-25T23:10:00.558Z,78.90
2019-04-25T23:12:31.210Z,78.80
2019-04-25T23:15:00.597Z,79.20
2019-04-25T23:17:30.223Z,79.90
2019-04-25T23:19:59.856Z,80.20
2019-04-25T23:22:29.318Z,80.70
2019-04-25T23:25:06.528Z,81.00
2019-04-25T23:27:44.605Z,81.60
2019-04-25T23:30:15.932Z,82.00
2019-04-25T23:32:45.314Z,82.70
2019-04-25T23:35:27.558Z,83.10
2019-04-25T23:37:45.874Z,83.10
2019-04-25T23:40:15.871Z,83.10
2019-04-25T23:42:45.379Z,83.50
2019-04-25T23:45:14.686Z,83.50
2019-04-25T23:47:43.982Z,83.30
2019-04-25T23:50:14.684Z,83.30
2019-04-25T23:52:44.138Z,83.30
2019-04-25T23:55:13.432Z,83.40
2019-04-25T23:57:42.788Z,83.80
